createdAt,value
2022-12-06T00:01:42.210Z,5.26
2022-12-06T00:04:11.834Z,5.26
2022-12-06T00:06:51.424Z,5.25
2022-12-06T00:09:23.605Z,5.25
2022-12-06T00:11:50.881Z,5.26
2022-12-06T00:14:17.817Z,5.26
2022-12-06T00:16:47.978Z,5.24
2022-12-06T00:19:17.469Z,5.23
2022-12-06T00:21:44.624Z,5.22
2022-12-06T00:24:18.132Z,5.20
2022-12-06T00:26:46.761Z,5.19
2022-12-06T00:29:16.457Z,5.20
2022-12-06T00:31:43.108Z,5.21
2022-12-06T00:34:09.958Z,5.18
2022-12-06T00:36:39.377Z,5.17
2022-12-06T00:39:09.471Z,5.15
2022-12-06T00:41:36.482Z,5.17
2022-12-06T00:44:03.174Z,5.16
2022-12-06T00:46:32.305Z,5.18
2022-12-06T00:49:00.379Z,5.18
2022-12-06T00:51:31.581Z,5.20
2022-12-06T00:53:59.024Z,5.17
2022-12-06T00:56:26.604Z,5.17
2022-12-06T00:58:53.380Z,5.18
2022-12-06T01:01:29.262Z,5.22
2022-12-06T01:03:59.163Z,5.22
2022-12-06T01:06:29.095Z,5.22
2022-12-06T01:08:57.635Z,5.23
2022-12-06T01:11:25.237Z,5.24
2022-12-06T01:13:52.855Z,5.24
2022-12-06T01:16:23.303Z,5.26
2022-12-06T01:18:56.980Z,5.24
2022-12-06T01:21:24.610Z,5.25
2022-12-06T01:23:51.759Z,5.25
2022-12-06T01:26:37.840Z,5.23
2022-12-06T01:29:04.658Z,5.25
2022-12-06T01:31:37.809Z,5.22
2022-12-06T01:34:06.950Z,5.20
2022-12-06T01:36:33.571Z,5.18
2022-12-06T01:39:01.714Z,5.19
2022-12-06T01:41:28.621Z,5.19
2022-12-06T01:43:56.548Z,5.19
2022-12-06T01:46:29.208Z,5.21
2022-12-06T01:49:07.834Z,5.20
2022-12-06T01:51:35.415Z,5.21
2022-12-06T01:54:06.719Z,5.18
2022-12-06T01:56:33.469Z,5.16
2022-12-06T01:59:00.494Z,5.15
2022-12-06T02:01:29.931Z,5.15
2022-12-06T02:03:59.903Z,5.14
2022-12-06T02:06:27.577Z,5.15
2022-12-06T02:08:56.915Z,5.13
2022-12-06T02:11:23.406Z,5.09
2022-12-06T02:13:50.928Z,5.06
2022-12-06T02:16:45.456Z,5.02
2022-12-06T02:19:12.018Z,5.00
2022-12-06T02:21:57.536Z,4.96
2022-12-06T02:24:32.663Z,4.94
2022-12-06T02:27:23.471Z,4.91
2022-12-06T02:30:09.639Z,4.88
2022-12-06T02:32:57.403Z,4.86
2022-12-06T02:35:39.308Z,4.84
2022-12-06T02:38:17.661Z,4.83
2022-12-06T02:40:54.326Z,4.82
2022-12-06T02:43:53.846Z,4.82
2022-12-06T02:46:22.817Z,4.81
2022-12-06T02:48:53.333Z,4.82
2022-12-06T02:51:20.664Z,4.83
2022-12-06T02:53:51.503Z,4.82
2022-12-06T02:56:19.352Z,4.81
2022-12-06T02:58:47.209Z,4.82
2022-12-06T03:01:20.781Z,4.83
2022-12-06T03:04:14.795Z,4.85
2022-12-06T03:06:59.474Z,4.83
2022-12-06T03:09:56.516Z,4.84
2022-12-06T03:12:29.108Z,4.86
2022-12-06T03:15:05.119Z,4.83
2022-12-06T03:17:38.755Z,4.85
2022-12-06T03:20:12.141Z,4.84
2022-12-06T03:22:50.230Z,4.84
2022-12-06T03:25:17.216Z,4.87
2022-12-06T03:27:45.433Z,4.84
2022-12-06T03:30:14.000Z,4.84
2022-12-06T03:32:46.373Z,4.82
2022-12-06T03:35:15.718Z,4.83
2022-12-06T03:37:49.416Z,4.85
2022-12-06T03:40:28.944Z,4.83
2022-12-06T03:42:56.431Z,4.83
2022-12-06T03:45:30.149Z,4.83
2022-12-06T03:48:33.989Z,4.82
2022-12-06T03:51:07.590Z,4.83
2022-12-06T03:53:34.402Z,4.83
2022-12-06T03:56:01.097Z,4.84
2022-12-06T03:58:27.599Z,4.84
2022-12-06T04:00:54.074Z,4.83
2022-12-06T04:03:20.606Z,4.83
2022-12-06T04:05:47.305Z,4.84
2022-12-06T04:08:13.929Z,4.84
2022-12-06T04:10:40.491Z,4.84
2022-12-06T04:13:08.466Z,4.86
2022-12-06T04:15:37.801Z,4.85
2022-12-06T04:18:16.360Z,4.85
2022-12-06T04:21:06.168Z,4.85
2022-12-06T04:23:36.559Z,4.85
2022-12-06T04:26:07.807Z,4.84
2022-12-06T04:28:53.062Z,4.82
2022-12-06T04:31:38.289Z,4.82
2022-12-06T04:34:23.398Z,4.81
2022-12-06T04:37:08.806Z,4.82
2022-12-06T04:39:35.669Z,4.82
2022-12-06T04:42:20.888Z,4.81
2022-12-06T04:44:47.729Z,4.80
2022-12-06T04:47:14.591Z,4.80
2022-12-06T04:49:41.733Z,4.79
2022-12-06T04:52:09.214Z,4.77
2022-12-06T04:54:36.785Z,4.77
2022-12-06T04:57:04.442Z,4.76
2022-12-06T04:59:30.958Z,4.73
2022-12-06T05:01:57.550Z,4.72
2022-12-06T05:04:24.279Z,4.70
2022-12-06T05:06:51.036Z,4.67
2022-12-06T05:09:17.575Z,4.70
2022-12-06T05:11:44.228Z,4.69
2022-12-06T05:14:10.838Z,4.67
2022-12-06T05:16:37.672Z,4.65
2022-12-06T05:19:04.407Z,4.65
2022-12-06T05:21:31.393Z,4.63
2022-12-06T05:23:58.350Z,4.65
2022-12-06T05:26:29.708Z,4.63
2022-12-06T05:28:57.131Z,4.63
2022-12-06T05:31:24.691Z,4.63
2022-12-06T05:33:52.516Z,4.63
2022-12-06T05:36:22.257Z,4.63
2022-12-06T05:38:51.800Z,4.63
2022-12-06T05:41:20.759Z,4.62
2022-12-06T05:43:47.315Z,4.62
2022-12-06T05:46:14.059Z,4.62
2022-12-06T05:48:40.868Z,4.63
2022-12-06T05:51:07.653Z,4.64
2022-12-06T05:53:34.538Z,4.62
2022-12-06T05:56:06.447Z,4.61
2022-12-06T05:58:36.281Z,4.62
2022-12-06T06:01:05.070Z,4.61
2022-12-06T06:03:31.718Z,4.59
2022-12-06T06:06:00.164Z,4.56
2022-12-06T06:08:28.006Z,4.56
2022-12-06T06:10:55.028Z,4.53
2022-12-06T06:13:22.324Z,4.52
2022-12-06T06:15:50.118Z,4.50
2022-12-06T06:18:17.849Z,4.50
2022-12-06T06:20:52.934Z,4.48
2022-12-06T06:23:20.073Z,4.45
2022-12-06T06:25:47.182Z,4.43
2022-12-06T06:28:14.264Z,4.42
2022-12-06T06:30:40.791Z,4.42
2022-12-06T06:33:07.408Z,4.43
2022-12-06T06:35:34.275Z,4.43
2022-12-06T06:38:01.049Z,4.42
2022-12-06T06:40:31.004Z,4.43
2022-12-06T06:42:57.732Z,4.44
2022-12-06T06:45:28.937Z,4.45
2022-12-06T06:47:57.565Z,4.46
2022-12-06T06:50:24.354Z,4.47
2022-12-06T06:52:50.847Z,4.47
2022-12-06T06:55:17.479Z,4.48
2022-12-06T06:57:44.221Z,4.50
2022-12-06T07:00:11.530Z,4.50
2022-12-06T07:02:39.773Z,4.52
2022-12-06T07:05:07.130Z,4.49
2022-12-06T07:07:33.877Z,4.45
2022-12-06T07:10:00.937Z,4.40
2022-12-06T07:12:27.714Z,4.41
2022-12-06T07:14:54.311Z,4.37
2022-12-06T07:17:21.198Z,4.30
2022-12-06T07:19:48.061Z,4.24
2022-12-06T07:22:14.646Z,4.15
2022-12-06T07:24:43.584Z,4.12
2022-12-06T07:27:12.354Z,4.06
2022-12-06T07:29:39.240Z,4.01
2022-12-06T07:32:06.068Z,3.98
2022-12-06T07:34:33.399Z,3.92
2022-12-06T07:37:00.062Z,3.84
2022-12-06T07:39:26.808Z,3.76
2022-12-06T07:42:12.035Z,3.73
2022-12-06T07:45:01.671Z,3.66
2022-12-06T07:47:40.325Z,3.60
2022-12-06T07:50:14.509Z,3.53
2022-12-06T07:52:44.904Z,3.46
2022-12-06T07:55:12.550Z,3.40
2022-12-06T07:57:43.442Z,3.37
2022-12-06T08:00:12.780Z,3.34
2022-12-06T08:02:42.036Z,3.31
2022-12-06T08:05:08.967Z,3.27
2022-12-06T08:07:35.563Z,3.21
2022-12-06T08:10:02.511Z,3.19
2022-12-06T08:12:32.628Z,3.13
2022-12-06T08:14:59.957Z,3.07
2022-12-06T08:17:27.775Z,3.04
2022-12-06T08:19:54.549Z,2.99
2022-12-06T08:22:21.361Z,2.97
2022-12-06T08:24:48.214Z,2.97
2022-12-06T08:27:15.290Z,2.95
2022-12-06T08:29:41.838Z,2.95
2022-12-06T08:32:08.447Z,2.98
2022-12-06T08:34:35.266Z,3.02
2022-12-06T08:37:03.655Z,3.06
2022-12-06T08:39:30.374Z,3.07
2022-12-06T08:42:00.390Z,3.08
2022-12-06T08:44:28.561Z,3.11
2022-12-06T08:46:56.371Z,3.16
2022-12-06T08:49:24.362Z,3.24
2022-12-06T08:51:51.783Z,3.36
2022-12-06T08:54:20.871Z,3.47
2022-12-06T08:56:47.605Z,3.50
2022-12-06T08:59:14.748Z,3.56
2022-12-06T09:01:41.896Z,3.65
2022-12-06T09:04:10.033Z,3.74
2022-12-06T09:06:39.627Z,3.85
2022-12-06T09:09:07.251Z,4.05
2022-12-06T09:11:33.862Z,4.24
2022-12-06T09:14:00.602Z,4.31
2022-12-06T09:16:27.491Z,4.37
2022-12-06T09:18:54.244Z,4.43
2022-12-06T09:21:23.232Z,4.50
2022-12-06T09:23:50.165Z,4.56
2022-12-06T09:26:17.689Z,4.63
2022-12-06T09:28:49.507Z,4.70
2022-12-06T09:31:17.125Z,4.75
2022-12-06T09:33:43.714Z,4.81
2022-12-06T09:36:19.641Z,4.92
2022-12-06T09:38:48.195Z,5.05
2022-12-06T09:41:40.750Z,5.21
2022-12-06T09:44:28.938Z,5.36
2022-12-06T09:47:22.495Z,5.51
2022-12-06T09:50:01.126Z,5.73
2022-12-06T09:53:05.397Z,5.91
2022-12-06T09:56:00.603Z,6.04
2022-12-06T09:58:58.169Z,5.98
2022-12-06T10:01:45.827Z,5.98
2022-12-06T10:04:39.672Z,5.98
2022-12-06T10:07:20.042Z,6.03
2022-12-06T10:09:56.983Z,6.02
2022-12-06T10:12:55.590Z,6.00
2022-12-06T10:15:55.479Z,5.97
2022-12-06T10:18:34.943Z,5.99
2022-12-06T10:21:17.972Z,6.00
2022-12-06T10:23:44.477Z,5.97
2022-12-06T10:26:17.282Z,5.95
2022-12-06T10:28:57.879Z,5.94
2022-12-06T10:31:39.265Z,6.03
2022-12-06T10:34:11.865Z,6.15
2022-12-06T10:36:57.469Z,6.33
2022-12-06T10:39:48.787Z,6.46
2022-12-06T10:42:36.586Z,6.39
2022-12-06T10:45:36.000Z,6.38
2022-12-06T10:48:13.443Z,6.40
2022-12-06T10:50:42.590Z,6.42
2022-12-06T10:53:16.849Z,6.53
2022-12-06T10:55:58.407Z,6.60
2022-12-06T10:58:31.070Z,6.65
2022-12-06T11:01:01.101Z,6.71
2022-12-06T11:03:40.264Z,6.72
2022-12-06T11:06:28.240Z,6.75
2022-12-06T11:09:00.690Z,6.81
2022-12-06T11:11:33.312Z,6.83
2022-12-06T11:14:04.510Z,6.88
2022-12-06T11:16:43.178Z,6.91
2022-12-06T11:19:37.638Z,6.90
2022-12-06T11:22:38.990Z,6.91
2022-12-06T11:25:30.385Z,6.82
2022-12-06T11:28:04.645Z,6.81
2022-12-06T11:30:33.712Z,6.73
2022-12-06T11:33:01.715Z,6.66
2022-12-06T11:35:28.965Z,6.65
2022-12-06T11:38:00.648Z,6.64
2022-12-06T11:40:41.434Z,6.69
2022-12-06T11:43:18.069Z,6.74
2022-12-06T11:45:46.909Z,6.78
2022-12-06T11:48:18.231Z,6.78
2022-12-06T11:50:47.324Z,6.76
2022-12-06T11:53:22.363Z,6.79
2022-12-06T11:55:53.083Z,6.83
2022-12-06T11:59:07.964Z,6.90
2022-12-06T12:01:46.909Z,6.83
2022-12-06T12:04:26.589Z,6.85
2022-12-06T12:07:18.033Z,6.89
2022-12-06T12:10:01.602Z,6.97
2022-12-06T12:12:59.858Z,6.98
2022-12-06T12:15:27.733Z,6.96
2022-12-06T12:17:57.164Z,6.93
2022-12-06T12:20:29.241Z,6.96
2022-12-06T12:23:14.626Z,6.91
2022-12-06T12:25:44.020Z,6.92
2022-12-06T12:28:28.755Z,6.96
2022-12-06T12:30:57.639Z,6.96
2022-12-06T12:33:28.484Z,6.96
2022-12-06T12:36:10.931Z,6.92
2022-12-06T12:38:42.508Z,6.93
2022-12-06T12:41:33.041Z,6.93
2022-12-06T12:44:48.260Z,6.95
2022-12-06T12:47:00.220Z,6.92
2022-12-06T12:49:34.281Z,6.94
2022-12-06T12:52:03.498Z,6.93
2022-12-06T12:54:39.167Z,6.91
2022-12-06T12:57:12.915Z,6.95
2022-12-06T12:59:41.274Z,6.99
2022-12-06T13:02:21.217Z,7.04
2022-12-06T13:05:11.035Z,7.16
2022-12-06T13:07:45.221Z,7.25
2022-12-06T13:10:24.320Z,7.29
2022-12-06T13:12:55.537Z,7.29
2022-12-06T13:15:40.688Z,7.32
2022-12-06T13:18:14.137Z,7.33
2022-12-06T13:20:41.494Z,7.35
2022-12-06T13:23:20.400Z,7.31
2022-12-06T13:25:55.890Z,7.26
2022-12-06T13:28:28.668Z,7.17
2022-12-06T13:31:03.661Z,7.15
2022-12-06T13:33:33.824Z,7.15
2022-12-06T13:36:05.099Z,7.13
2022-12-06T13:38:39.713Z,7.17
2022-12-06T13:41:11.612Z,7.20
2022-12-06T13:43:39.957Z,7.23
2022-12-06T13:46:07.209Z,7.26
2022-12-06T13:48:33.847Z,7.32
2022-12-06T13:51:03.537Z,7.34
2022-12-06T13:53:34.038Z,7.30
2022-12-06T13:56:27.797Z,7.30
2022-12-06T13:58:56.631Z,7.31
2022-12-06T14:01:44.841Z,7.32
2022-12-06T14:09:37.286Z,7.18
2022-12-06T14:12:18.094Z,7.12
2022-12-06T14:14:53.973Z,7.05
2022-12-06T14:17:52.551Z,6.98
2022-12-06T14:20:27.803Z,6.89
2022-12-06T14:22:54.884Z,6.87
2022-12-06T14:25:28.497Z,6.81
2022-12-06T14:28:07.404Z,6.81
2022-12-06T14:30:34.301Z,6.81
2022-12-06T14:33:01.056Z,6.78
2022-12-06T14:35:30.505Z,6.80
2022-12-06T14:38:23.003Z,6.74
2022-12-06T14:41:09.157Z,6.68
2022-12-06T14:43:36.138Z,6.62
2022-12-06T14:46:06.469Z,6.63
2022-12-06T14:48:52.674Z,6.61
2022-12-06T14:51:23.502Z,6.57
2022-12-06T14:53:50.809Z,6.54
2022-12-06T14:56:31.865Z,6.50
2022-12-06T14:59:02.247Z,6.50
2022-12-06T15:01:31.855Z,6.47
2022-12-06T15:04:06.563Z,6.46
2022-12-06T15:06:34.959Z,6.43
2022-12-06T15:09:01.564Z,6.39
2022-12-06T15:11:57.623Z,6.36
2022-12-06T15:14:25.455Z,6.36
2022-12-06T15:16:58.490Z,6.33
2022-12-06T15:19:25.440Z,6.29
2022-12-06T15:21:52.917Z,6.28
2022-12-06T15:24:22.614Z,6.29
2022-12-06T15:26:49.889Z,6.24
2022-12-06T15:29:17.080Z,6.21
2022-12-06T15:31:49.316Z,6.20
2022-12-06T15:34:31.604Z,6.20
2022-12-06T15:37:30.296Z,6.19
2022-12-06T15:39:46.984Z,6.13
2022-12-06T15:42:18.823Z,6.11
2022-12-06T15:45:00.861Z,6.08
2022-12-06T15:47:30.483Z,6.07
2022-12-06T15:49:58.300Z,6.04
2022-12-06T15:52:26.160Z,6.03
2022-12-06T15:54:52.777Z,6.02
2022-12-06T15:57:19.416Z,6.03
2022-12-06T15:59:45.872Z,5.98
2022-12-06T16:02:15.673Z,5.96
2022-12-06T16:04:43.265Z,5.96
2022-12-06T16:07:10.720Z,5.93
2022-12-06T16:09:37.676Z,5.89
2022-12-06T16:12:04.511Z,5.88
2022-12-06T16:14:31.017Z,5.86
2022-12-06T16:16:57.435Z,5.83
2022-12-06T16:19:24.072Z,5.81
2022-12-06T16:21:56.331Z,5.78
2022-12-06T16:24:23.254Z,5.77
2022-12-06T16:26:49.937Z,5.77
2022-12-06T16:29:23.416Z,5.77
2022-12-06T16:31:51.505Z,5.79
2022-12-06T16:34:18.615Z,5.81
2022-12-06T16:37:03.037Z,5.80
2022-12-06T16:39:31.356Z,5.76
2022-12-06T16:41:57.929Z,5.73
2022-12-06T16:44:25.208Z,5.72
2022-12-06T16:46:52.154Z,5.73
2022-12-06T16:52:10.907Z,5.74
2022-12-06T16:54:41.190Z,5.69
2022-12-06T16:57:10.017Z,5.66
2022-12-06T16:59:36.853Z,5.61
2022-12-06T17:02:07.139Z,5.60
2022-12-06T17:04:36.912Z,5.58
2022-12-06T17:07:04.427Z,5.57
2022-12-06T17:09:30.875Z,5.52
2022-12-06T17:12:03.409Z,5.48
2022-12-06T17:14:30.271Z,5.48
2022-12-06T17:16:57.384Z,5.47
2022-12-06T17:19:28.430Z,5.46
2022-12-06T17:21:55.229Z,5.44
2022-12-06T17:24:23.939Z,5.46
2022-12-06T17:26:50.567Z,5.46
2022-12-06T17:29:17.697Z,5.47
2022-12-06T17:31:44.301Z,5.47
2022-12-06T17:34:13.501Z,5.48
2022-12-06T17:36:43.236Z,5.48
2022-12-06T17:39:12.884Z,5.47
2022-12-06T17:41:58.131Z,5.46
2022-12-06T17:44:24.683Z,5.47
2022-12-06T17:46:51.535Z,5.46
2022-12-06T17:49:21.230Z,5.47
2022-12-06T17:51:48.101Z,5.45
2022-12-06T17:54:15.638Z,5.40
2022-12-06T17:56:44.396Z,5.36
2022-12-06T17:59:14.085Z,5.29
2022-12-06T18:04:28.981Z,5.15
2022-12-06T18:06:55.747Z,5.08
2022-12-06T18:09:22.312Z,5.06
2022-12-06T18:11:49.102Z,5.01
2022-12-06T18:14:16.408Z,4.99
2022-12-06T18:16:45.947Z,4.95
2022-12-06T18:19:18.540Z,4.92
2022-12-06T18:21:46.076Z,4.89
2022-12-06T18:24:25.606Z,4.85
2022-12-06T18:26:53.385Z,4.81
2022-12-06T18:29:21.855Z,4.77
2022-12-06T18:31:49.589Z,4.74
2022-12-06T18:34:16.598Z,4.72
2022-12-06T18:36:43.477Z,4.67
2022-12-06T18:39:15.344Z,4.64
2022-12-06T18:41:43.933Z,4.62
2022-12-06T18:44:11.452Z,4.61
2022-12-06T18:46:39.226Z,4.61
2022-12-06T18:49:06.955Z,4.60
2022-12-06T18:51:35.860Z,4.58
2022-12-06T18:54:04.990Z,4.59
2022-12-06T18:56:33.102Z,4.58
2022-12-06T18:59:01.364Z,4.58
2022-12-06T19:01:30.658Z,4.59
2022-12-06T19:04:03.293Z,4.61
2022-12-06T19:06:35.637Z,4.59
2022-12-06T19:09:06.103Z,4.62
2022-12-06T19:11:36.090Z,4.61
2022-12-06T19:14:02.618Z,4.62
2022-12-06T19:16:34.044Z,4.63
2022-12-06T19:19:03.257Z,4.64
2022-12-06T19:21:34.549Z,4.66
2022-12-06T19:24:01.915Z,4.67
2022-12-06T19:26:31.520Z,4.68
2022-12-06T19:28:58.156Z,4.69
2022-12-06T19:31:25.410Z,4.70
2022-12-06T19:33:52.569Z,4.71
2022-12-06T19:36:28.793Z,4.71
2022-12-06T19:38:57.564Z,4.70
2022-12-06T19:41:24.180Z,4.68
2022-12-06T19:44:09.650Z,4.71
2022-12-06T19:46:38.931Z,4.71
2022-12-06T19:49:06.622Z,4.71
2022-12-06T19:51:37.505Z,4.73
2022-12-06T19:54:07.808Z,4.74
2022-12-06T19:56:35.276Z,4.72
2022-12-06T19:59:11.104Z,4.71
2022-12-06T20:01:41.710Z,4.71
2022-12-06T20:04:09.292Z,4.71
2022-12-06T20:06:36.579Z,4.70
2022-12-06T20:09:03.924Z,4.69
2022-12-06T20:11:48.906Z,4.69
2022-12-06T20:14:18.166Z,4.67
2022-12-06T20:16:45.049Z,4.65
2022-12-06T20:19:13.210Z,4.63
2022-12-06T20:21:39.844Z,4.61
2022-12-06T20:24:06.691Z,4.59
2022-12-06T20:26:33.793Z,4.59
2022-12-06T20:29:00.593Z,4.59
2022-12-06T20:31:29.541Z,4.58
2022-12-06T20:34:03.422Z,4.61
2022-12-06T20:36:31.935Z,4.64
2022-12-06T20:39:00.137Z,4.64
2022-12-06T20:41:31.831Z,4.66
2022-12-06T20:43:59.290Z,4.69
2022-12-06T20:46:28.656Z,4.70
2022-12-06T20:49:03.112Z,4.72
2022-12-06T20:51:30.617Z,4.70
2022-12-06T20:53:59.469Z,4.69
2022-12-06T20:56:29.342Z,4.69
2022-12-06T20:58:57.753Z,4.70
2022-12-06T21:01:27.462Z,4.69
2022-12-06T21:03:54.864Z,4.69
2022-12-06T21:06:23.236Z,4.70
2022-12-06T21:08:50.285Z,4.71
2022-12-06T21:11:23.059Z,4.72
2022-12-06T21:13:54.317Z,4.72
2022-12-06T21:16:26.683Z,4.71
2022-12-06T21:19:03.164Z,4.69
2022-12-06T21:21:34.403Z,4.65
2022-12-06T21:24:02.554Z,4.62
2022-12-06T21:26:29.976Z,4.58
2022-12-06T21:28:57.967Z,4.58
2022-12-06T21:31:33.645Z,4.57
2022-12-06T21:34:00.778Z,4.55
2022-12-06T21:36:27.865Z,4.52
2022-12-06T21:38:56.184Z,4.50
2022-12-06T21:41:23.279Z,4.45
2022-12-06T21:43:50.132Z,4.41
2022-12-06T21:46:19.625Z,4.41
2022-12-06T21:48:51.303Z,4.41
2022-12-06T21:51:18.499Z,4.36
2022-12-06T21:53:45.380Z,4.34
2022-12-06T21:56:16.198Z,4.35
2022-12-06T21:58:42.929Z,4.37
2022-12-06T22:01:12.661Z,4.36
2022-12-06T22:03:39.827Z,4.32
2022-12-06T22:06:12.027Z,4.29
2022-12-06T22:08:40.278Z,4.24
2022-12-06T22:11:13.026Z,4.22
2022-12-06T22:13:39.538Z,4.19
2022-12-06T22:16:08.711Z,4.16
2022-12-06T22:18:42.667Z,4.12
2022-12-06T22:21:20.089Z,4.08
2022-12-06T22:23:47.964Z,4.08
2022-12-06T22:26:17.187Z,4.08
2022-12-06T22:28:44.761Z,4.05
2022-12-06T22:31:15.936Z,4.02
2022-12-06T22:33:42.796Z,3.99
2022-12-06T22:36:10.244Z,3.97
2022-12-06T22:38:37.253Z,3.93
2022-12-06T22:41:04.196Z,3.89
2022-12-06T22:43:31.923Z,3.88
2022-12-06T22:46:10.135Z,3.87
2022-12-06T22:48:38.780Z,3.83
2022-12-06T22:51:14.610Z,3.81
2022-12-06T22:53:43.230Z,3.79
2022-12-06T22:56:10.816Z,3.79
2022-12-06T22:58:38.252Z,3.74
2022-12-06T23:01:16.015Z,3.71
2022-12-06T23:03:48.409Z,3.65
2022-12-06T23:06:17.514Z,3.63
2022-12-06T23:08:44.783Z,3.59
2022-12-06T23:11:38.587Z,3.56
2022-12-06T23:14:05.394Z,3.54
2022-12-06T23:16:32.656Z,3.52
2022-12-06T23:19:02.634Z,3.52
2022-12-06T23:21:34.658Z,3.50
2022-12-06T23:24:05.439Z,3.49
2022-12-06T23:26:34.615Z,3.48
2022-12-06T23:29:02.067Z,3.47
2022-12-06T23:31:31.195Z,3.47
2022-12-06T23:34:06.784Z,3.46
2022-12-06T23:36:34.963Z,3.46
2022-12-06T23:39:02.342Z,3.45
2022-12-06T23:41:30.769Z,3.43
2022-12-06T23:43:57.949Z,3.43
2022-12-06T23:46:27.709Z,3.44
2022-12-06T23:48:54.999Z,3.46
2022-12-06T23:51:24.627Z,3.45
2022-12-06T23:53:57.548Z,3.46
2022-12-06T23:56:25.714Z,3.48
2022-12-06T23:58:53.026Z,3.48
